createdAt,value
2019-02-24T00:01:32.064Z,25.15
2019-02-24T00:04:00.964Z,24.65
2019-02-24T00:06:29.944Z,24.90
2019-02-24T00:08:58.711Z,23.83
2019-02-24T00:11:27.580Z,25.23
2019-02-24T00:13:56.472Z,25.02
2019-02-24T00:16:25.660Z,24.75
2019-02-24T00:18:54.442Z,23.83
2019-02-24T00:21:23.520Z,24.47
2019-02-24T00:23:52.385Z,25.10
2019-02-24T00:26:21.249Z,25.37
2019-02-24T00:28:50.899Z,24.57
2019-02-24T00:31:20.018Z,25.40
2019-02-24T00:33:48.862Z,25.20
2019-02-24T00:36:18.109Z,25.23
2019-02-24T00:38:46.971Z,24.70
2019-02-24T00:41:15.873Z,25.10
2019-02-24T00:43:44.886Z,24.63
2019-02-24T00:46:13.998Z,24.18
2019-02-24T00:48:42.829Z,25.57
2019-02-24T00:51:11.893Z,25.43
2019-02-24T00:53:40.824Z,24.75
2019-02-24T00:56:10.001Z,24.77
2019-02-24T00:58:38.782Z,25.92
2019-02-24T01:01:07.714Z,26.57
2019-02-24T01:03:37.482Z,25.25
2019-02-24T01:06:06.232Z,23.67
2019-02-24T01:08:34.954Z,24.98
2019-02-24T01:11:03.748Z,25.88
2019-02-24T01:13:32.459Z,25.52
2019-02-24T01:16:01.328Z,24.50
2019-02-24T01:18:30.094Z,25.80
2019-02-24T01:20:59.176Z,24.45
2019-02-24T01:23:28.024Z,24.00
2019-02-24T01:25:56.912Z,26.65
2019-02-24T01:28:25.759Z,26.20
2019-02-24T01:30:54.799Z,24.07
2019-02-24T01:33:23.534Z,24.35
2019-02-24T01:35:52.758Z,25.72
2019-02-24T01:38:21.530Z,23.67
2019-02-24T01:40:50.340Z,23.12
2019-02-24T01:43:19.122Z,24.30
2019-02-24T01:45:47.892Z,25.90
2019-02-24T01:48:16.706Z,23.98
2019-02-24T01:50:45.523Z,26.45
2019-02-24T01:53:14.396Z,26.37
2019-02-24T01:55:43.182Z,25.75
2019-02-24T01:58:12.071Z,23.80
2019-02-24T02:00:40.952Z,25.15
2019-02-24T02:03:09.735Z,22.87
2019-02-24T02:05:38.519Z,26.02
2019-02-24T02:08:07.403Z,24.92
2019-02-24T02:10:36.249Z,26.30
2019-02-24T02:13:05.201Z,26.12
2019-02-24T02:15:33.932Z,24.60
2019-02-24T02:18:02.715Z,23.15
2019-02-24T02:20:32.022Z,24.18
2019-02-24T02:23:01.138Z,24.25
2019-02-24T02:25:29.958Z,24.80
2019-02-24T02:27:59.234Z,23.92
2019-02-24T02:30:28.110Z,24.32
2019-02-24T02:32:57.247Z,23.85
2019-02-24T02:35:26.052Z,23.40
2019-02-24T02:37:54.823Z,23.85
2019-02-24T02:40:24.016Z,24.82
2019-02-24T02:42:52.831Z,23.77
2019-02-24T02:45:21.645Z,24.80
2019-02-24T02:47:50.528Z,23.60
2019-02-24T02:50:19.761Z,25.70
2019-02-24T02:52:48.961Z,23.52
2019-02-24T02:55:17.842Z,26.70
2019-02-24T02:57:46.605Z,24.23
2019-02-24T03:00:28.941Z,23.98
2019-02-24T03:20:21.542Z,25.57
2019-02-24T03:22:50.803Z,24.23
2019-02-24T03:25:19.977Z,24.75
2019-02-24T03:27:49.256Z,24.90
2019-02-24T03:30:18.061Z,24.20
2019-02-24T03:32:46.950Z,24.63
2019-02-24T03:35:16.223Z,22.50
2019-02-24T03:37:45.079Z,25.70
2019-02-24T03:40:13.928Z,23.75
2019-02-24T03:42:42.824Z,23.85
2019-02-24T03:45:11.986Z,23.42
2019-02-24T03:47:40.866Z,25.92
2019-02-24T03:50:10.998Z,23.73
2019-02-24T03:52:39.891Z,24.67
2019-02-24T03:55:09.071Z,24.02
2019-02-24T03:57:38.110Z,24.15
2019-02-24T04:00:07.544Z,25.12
2019-02-24T04:02:36.514Z,25.45
2019-02-24T04:05:05.464Z,25.43
2019-02-24T04:07:34.272Z,24.23
2019-02-24T04:10:03.073Z,25.60
2019-02-24T04:12:32.031Z,25.48
2019-02-24T04:15:01.136Z,23.87
2019-02-24T04:17:29.963Z,23.95
2019-02-24T04:19:58.846Z,25.00
2019-02-24T04:22:27.718Z,25.25
2019-02-24T04:24:56.519Z,25.48
2019-02-24T04:27:25.278Z,27.02
2019-02-24T04:29:54.095Z,24.65
2019-02-24T04:32:22.914Z,25.50
2019-02-24T04:34:51.675Z,25.90
2019-02-24T04:37:20.689Z,25.35
2019-02-24T04:39:49.436Z,25.65
2019-02-24T04:42:18.837Z,26.75
2019-02-24T04:44:47.635Z,25.12
2019-02-24T04:47:16.650Z,24.27
2019-02-24T04:49:45.448Z,24.60
2019-02-24T04:52:14.218Z,24.72
2019-02-24T04:54:43.088Z,26.37
2019-02-24T04:57:12.174Z,27.13
2019-02-24T04:59:41.016Z,25.43
2019-02-24T05:02:09.763Z,24.70
2019-02-24T05:04:38.818Z,26.23
2019-02-24T05:07:07.714Z,24.02
2019-02-24T05:09:36.580Z,24.50
2019-02-24T05:12:05.362Z,23.80
2019-02-24T05:14:34.714Z,25.00
2019-02-24T05:17:03.539Z,23.55
2019-02-24T05:19:32.964Z,24.80
2019-02-24T05:22:01.816Z,25.05
2019-02-24T05:24:30.640Z,26.40
2019-02-24T05:26:59.576Z,26.35
2019-02-24T05:29:28.681Z,27.25
2019-02-24T05:31:57.515Z,23.83
2019-02-24T05:34:26.303Z,25.75
2019-02-24T05:36:55.075Z,23.73
2019-02-24T05:39:24.496Z,23.70
2019-02-24T05:41:53.623Z,24.87
2019-02-24T05:44:22.374Z,24.52
2019-02-24T05:46:51.344Z,23.45
2019-02-24T05:49:20.156Z,24.55
2019-02-24T05:51:49.019Z,24.35
2019-02-24T05:54:17.818Z,24.02
2019-02-24T05:56:46.691Z,22.27
2019-02-24T05:59:15.526Z,23.25
2019-02-24T06:01:44.498Z,23.20
2019-02-24T06:04:13.561Z,24.05
2019-02-24T06:06:42.373Z,22.52
2019-02-24T06:09:11.556Z,23.00
2019-02-24T06:11:40.371Z,23.12
2019-02-24T06:14:09.179Z,21.60
2019-02-24T06:16:37.939Z,23.38
2019-02-24T06:19:06.766Z,24.82
2019-02-24T06:21:35.634Z,23.15
2019-02-24T06:24:04.653Z,22.30
2019-02-24T06:26:33.416Z,23.98
2019-02-24T06:29:02.260Z,23.32
2019-02-24T06:31:31.082Z,23.65
2019-02-24T06:33:59.901Z,25.02
2019-02-24T06:36:28.787Z,23.27
2019-02-24T06:38:57.557Z,23.60
2019-02-24T06:41:26.364Z,23.87
2019-02-24T06:43:55.137Z,24.90
2019-02-24T06:46:24.004Z,24.25
2019-02-24T06:48:52.803Z,23.90
2019-02-24T06:51:21.625Z,23.18
2019-02-24T06:53:50.427Z,23.83
2019-02-24T06:56:19.459Z,25.23
2019-02-24T06:58:48.286Z,23.80
2019-02-24T07:01:17.333Z,25.25
2019-02-24T07:03:46.459Z,27.82
2019-02-24T07:06:15.377Z,25.35
2019-02-24T07:08:44.252Z,24.65
2019-02-24T07:11:13.443Z,25.90
2019-02-24T07:13:42.267Z,25.23
2019-02-24T07:16:11.134Z,25.43
2019-02-24T07:18:39.923Z,24.75
2019-02-24T07:21:08.740Z,26.05
2019-02-24T07:23:37.874Z,24.07
2019-02-24T07:26:06.736Z,24.40
2019-02-24T07:28:35.620Z,25.00
2019-02-24T07:31:04.389Z,24.80
2019-02-24T07:33:33.191Z,25.57
2019-02-24T07:36:02.151Z,25.25
2019-02-24T07:38:31.074Z,24.23
2019-02-24T07:40:59.830Z,24.35
2019-02-24T07:43:28.962Z,25.25
2019-02-24T07:45:57.954Z,25.70
2019-02-24T07:48:26.668Z,27.10
2019-02-24T07:50:55.673Z,25.65
2019-02-24T07:53:24.540Z,24.77
2019-02-24T07:55:53.320Z,26.62
2019-02-24T07:58:22.191Z,23.80
2019-02-24T08:00:51.072Z,23.98
2019-02-24T08:03:19.887Z,23.92
2019-02-24T08:05:48.775Z,25.65
2019-02-24T08:08:17.519Z,25.17
2019-02-24T08:10:46.481Z,24.72
2019-02-24T08:13:15.688Z,25.45
2019-02-24T08:15:44.508Z,25.32
2019-02-24T08:18:14.439Z,26.02
2019-02-24T08:20:43.275Z,25.10
2019-02-24T08:23:12.723Z,26.00
2019-02-24T08:25:42.050Z,26.70
2019-02-24T08:28:10.950Z,27.50
2019-02-24T08:30:41.874Z,26.70
2019-02-24T08:33:10.902Z,27.37
2019-02-24T08:35:40.058Z,25.60
2019-02-24T08:38:08.880Z,27.10
2019-02-24T08:40:37.642Z,25.75
2019-02-24T08:43:06.424Z,24.43
2019-02-24T08:45:35.232Z,26.85
2019-02-24T08:48:04.194Z,26.48
2019-02-24T08:50:33.240Z,24.80
2019-02-24T08:53:02.025Z,26.93
2019-02-24T08:55:30.787Z,25.40
2019-02-24T08:57:59.563Z,26.07
2019-02-24T09:00:28.624Z,26.15
2019-02-24T09:02:57.340Z,25.97
2019-02-24T09:05:26.092Z,26.12
2019-02-24T09:07:54.944Z,26.65
2019-02-24T09:10:23.877Z,27.58
2019-02-24T09:12:52.630Z,27.58
2019-02-24T09:15:21.429Z,28.90
2019-02-24T09:17:50.395Z,27.98
2019-02-24T09:20:19.277Z,29.07
2019-02-24T09:22:48.072Z,26.17
2019-02-24T09:25:17.185Z,28.52
2019-02-24T09:27:46.097Z,26.33
2019-02-24T09:30:15.215Z,27.85
2019-02-24T09:32:44.018Z,29.45
2019-02-24T09:35:13.726Z,29.87
2019-02-24T09:37:50.138Z,27.90
2019-02-24T09:40:21.429Z,27.80
2019-02-24T09:42:53.506Z,27.93
2019-02-24T09:45:22.737Z,27.00
2019-02-24T09:47:51.804Z,27.87
2019-02-24T09:50:21.547Z,28.70
2019-02-24T09:52:50.306Z,28.25
2019-02-24T09:55:19.537Z,26.65
2019-02-24T09:57:48.366Z,29.12
2019-02-24T10:00:17.389Z,28.95
2019-02-24T10:02:46.370Z,27.17
2019-02-24T10:05:15.257Z,27.22
2019-02-24T10:07:44.223Z,29.82
2019-02-24T10:10:12.994Z,28.55
2019-02-24T10:12:41.794Z,26.50
2019-02-24T10:15:10.675Z,27.15
2019-02-24T10:17:39.568Z,27.87
2019-02-24T10:20:08.734Z,27.40
2019-02-24T10:22:38.085Z,28.15
2019-02-24T10:25:07.275Z,27.95
2019-02-24T10:27:36.187Z,26.70
2019-02-24T10:30:05.412Z,27.70
2019-02-24T10:32:34.503Z,26.50
2019-02-24T10:35:04.172Z,29.27
2019-02-24T10:37:32.993Z,27.55
2019-02-24T10:40:01.842Z,26.77
2019-02-24T10:42:30.722Z,28.38
2019-02-24T10:44:59.567Z,28.38
2019-02-24T10:47:28.375Z,27.37
2019-02-24T10:50:16.367Z,26.77
2019-02-24T10:52:45.607Z,29.47
2019-02-24T10:55:14.434Z,28.53
2019-02-24T10:57:43.259Z,30.50
2019-02-24T11:00:13.374Z,29.70
2019-02-24T11:02:42.395Z,30.10
2019-02-24T11:05:11.254Z,32.23
2019-02-24T11:07:40.127Z,29.40
2019-02-24T11:10:09.193Z,29.20
2019-02-24T11:12:38.651Z,36.33
2019-02-24T11:15:07.550Z,30.37
2019-02-24T11:17:36.420Z,29.60
2019-02-24T11:20:07.331Z,30.37
2019-02-24T11:22:36.183Z,29.73
2019-02-24T11:25:05.306Z,29.80
2019-02-24T11:27:34.419Z,29.63
2019-02-24T11:30:03.379Z,28.70
2019-02-24T11:32:32.283Z,29.60
2019-02-24T11:35:01.522Z,29.30
2019-02-24T11:37:32.356Z,30.87
2019-02-24T11:40:00.991Z,29.07
2019-02-24T11:42:29.816Z,29.23
2019-02-24T11:44:58.549Z,30.37
2019-02-24T11:47:27.339Z,29.93
2019-02-24T11:49:56.095Z,30.63
2019-02-24T11:52:24.954Z,28.83
2019-02-24T11:54:53.682Z,35.67
2019-02-24T11:57:23.115Z,30.33
2019-02-24T11:59:52.313Z,29.30
2019-02-24T12:02:21.242Z,28.63
2019-02-24T12:04:50.219Z,29.57
2019-02-24T12:07:18.999Z,29.30
2019-02-24T12:09:47.812Z,31.30
2019-02-24T12:12:16.640Z,29.30
2019-02-24T12:14:45.445Z,30.60
2019-02-24T12:17:14.595Z,29.73
2019-02-24T12:19:44.389Z,28.67
2019-02-24T12:22:13.199Z,28.27
2019-02-24T12:24:42.050Z,29.27
2019-02-24T12:27:13.000Z,28.13
2019-02-24T12:29:42.535Z,27.40
2019-02-24T12:32:11.321Z,29.07
2019-02-24T12:34:40.145Z,28.70
2019-02-24T12:37:09.416Z,29.90
2019-02-24T12:39:38.176Z,28.43
2019-02-24T12:42:07.720Z,28.93
2019-02-24T12:44:36.568Z,27.47
2019-02-24T12:47:05.895Z,27.20
2019-02-24T12:49:34.721Z,27.57
2019-02-24T12:52:03.445Z,27.50
2019-02-24T12:54:32.265Z,26.70
2019-02-24T12:57:01.076Z,28.80
2019-02-24T12:59:29.838Z,27.50
2019-02-24T13:02:05.472Z,26.70
2019-02-24T13:04:29.316Z,25.80
2019-02-24T13:06:58.206Z,27.53
2019-02-24T13:09:27.031Z,28.93
2019-02-24T13:11:56.684Z,28.00
2019-02-24T13:14:25.529Z,29.97
2019-02-24T13:16:54.416Z,27.03
2019-02-24T13:19:23.467Z,26.70
2019-02-24T13:21:52.300Z,28.20
2019-02-24T13:24:21.168Z,28.17
2019-02-24T13:26:50.044Z,31.10
2019-02-24T13:29:18.895Z,28.33
2019-02-24T13:31:47.831Z,26.93
2019-02-24T13:34:16.907Z,27.40
2019-02-24T13:36:45.943Z,27.03
2019-02-24T13:39:14.761Z,26.73
2019-02-24T13:41:44.028Z,28.67
2019-02-24T13:44:12.854Z,27.87
2019-02-24T13:46:41.993Z,27.40
2019-02-24T13:49:10.992Z,27.63
2019-02-24T13:51:39.917Z,26.40
2019-02-24T13:54:08.776Z,25.70
2019-02-24T13:56:37.531Z,26.43
2019-02-24T13:59:06.323Z,27.13
2019-02-24T14:01:41.648Z,32.90
2019-02-24T14:04:11.068Z,35.73
2019-02-24T14:06:39.899Z,27.60
2019-02-24T14:09:10.306Z,28.70
2019-02-24T14:11:39.130Z,28.07
2019-02-24T14:14:09.859Z,27.57
2019-02-24T14:16:38.480Z,26.90
2019-02-24T14:19:07.315Z,27.20
2019-02-24T14:21:36.105Z,26.47
2019-02-24T14:24:05.031Z,26.70
2019-02-24T14:26:33.872Z,28.07
2019-02-24T14:29:02.716Z,28.20
2019-02-24T14:31:31.560Z,29.20
2019-02-24T14:34:00.367Z,32.30
2019-02-24T14:36:29.190Z,28.10
2019-02-24T14:38:57.969Z,26.57
2019-02-24T14:41:28.333Z,28.97
2019-02-24T14:43:57.216Z,27.13
2019-02-24T14:46:26.148Z,27.50
2019-02-24T14:48:55.032Z,27.33
2019-02-24T14:51:23.841Z,26.70
2019-02-24T14:53:52.667Z,27.30
2019-02-24T14:56:21.454Z,26.33
2019-02-24T14:58:50.256Z,26.20
2019-02-24T15:01:19.088Z,26.20
2019-02-24T15:03:47.888Z,27.20
2019-02-24T15:06:16.706Z,28.83
2019-02-24T15:08:45.467Z,27.93
2019-02-24T15:11:14.734Z,30.27
2019-02-24T15:13:44.233Z,26.13
2019-02-24T15:16:13.033Z,27.43
2019-02-24T15:18:41.802Z,26.17
2019-02-24T15:21:10.897Z,26.00
2019-02-24T15:23:40.043Z,26.77
2019-02-24T15:26:08.836Z,28.20
2019-02-24T15:28:37.630Z,27.60
2019-02-24T15:31:06.507Z,28.30
2019-02-24T15:33:35.774Z,27.83
2019-02-24T15:36:04.725Z,34.53
2019-02-24T15:38:33.532Z,31.60
2019-02-24T15:41:02.348Z,25.70
2019-02-24T15:43:31.170Z,33.80
2019-02-24T15:46:00.023Z,26.70
2019-02-24T15:48:29.663Z,27.40
2019-02-24T15:50:58.733Z,26.37
2019-02-24T15:53:27.573Z,27.13
2019-02-24T15:55:56.811Z,26.60
2019-02-24T15:58:25.632Z,27.80
2019-02-24T16:00:54.534Z,26.97
2019-02-24T16:03:23.266Z,26.57
2019-02-24T16:05:52.048Z,27.30
2019-02-24T16:08:21.198Z,26.83
2019-02-24T16:10:50.004Z,28.03
2019-02-24T16:13:18.851Z,25.17
2019-02-24T16:15:47.651Z,26.20
2019-02-24T16:18:16.403Z,25.87
2019-02-24T16:20:45.380Z,24.60
2019-02-24T16:23:14.092Z,27.77
2019-02-24T16:25:42.851Z,37.53
2019-02-24T16:28:11.648Z,26.77
2019-02-24T16:30:40.549Z,25.70
2019-02-24T16:33:10.804Z,27.37
2019-02-24T16:35:40.081Z,27.50
2019-02-24T16:38:08.895Z,25.87
2019-02-24T16:40:37.624Z,25.70
2019-02-24T16:43:06.431Z,26.67
2019-02-24T16:45:35.562Z,26.43
2019-02-24T16:48:04.525Z,27.00
2019-02-24T16:50:33.426Z,26.53
2019-02-24T16:53:02.606Z,26.90
2019-02-24T16:55:31.344Z,27.30
2019-02-24T16:58:00.172Z,25.13
2019-02-24T17:00:29.093Z,24.97
2019-02-24T17:02:58.089Z,25.67
2019-02-24T17:05:27.059Z,24.60
2019-02-24T17:07:55.868Z,29.33
2019-02-24T17:10:24.750Z,37.50
2019-02-24T17:12:53.566Z,42.33
2019-02-24T17:15:22.779Z,28.23
2019-02-24T17:17:51.975Z,26.07
2019-02-24T17:20:20.939Z,27.17
2019-02-24T17:22:49.802Z,28.20
2019-02-24T17:25:18.783Z,29.97
2019-02-24T17:27:47.694Z,28.20
2019-02-24T17:30:16.858Z,28.87
2019-02-24T17:32:46.900Z,26.80
2019-02-24T17:35:15.694Z,29.47
2019-02-24T17:37:44.704Z,26.33
2019-02-24T17:40:13.733Z,26.57
2019-02-24T17:42:42.558Z,28.60
2019-02-24T17:45:12.215Z,25.70
2019-02-24T17:47:41.074Z,25.10
2019-02-24T17:50:11.169Z,26.70
2019-02-24T17:52:40.256Z,25.70
2019-02-24T17:55:10.129Z,25.87
2019-02-24T17:57:39.007Z,25.97
2019-02-24T18:00:14.234Z,25.73
2019-02-24T18:02:43.053Z,25.93
2019-02-24T18:05:12.172Z,24.73
2019-02-24T18:07:41.078Z,26.93
2019-02-24T18:10:10.133Z,25.30
2019-02-24T18:12:39.045Z,26.40
2019-02-24T18:15:09.137Z,25.83
2019-02-24T18:17:37.907Z,26.30
2019-02-24T18:20:08.015Z,26.80
2019-02-24T18:22:36.837Z,27.00
2019-02-24T18:25:07.099Z,28.00
2019-02-24T18:27:35.901Z,26.77
2019-02-24T18:30:06.571Z,26.60
2019-02-24T18:32:35.455Z,28.77
2019-02-24T18:35:04.390Z,29.27
2019-02-24T18:37:33.535Z,31.23
2019-02-24T18:40:02.456Z,28.53
2019-02-24T18:42:31.381Z,25.87
2019-02-24T18:45:00.348Z,28.57
2019-02-24T18:47:29.766Z,27.37
2019-02-24T18:49:59.272Z,27.10
2019-02-24T18:52:28.143Z,27.10
2019-02-24T18:54:57.168Z,27.80
2019-02-24T18:57:26.075Z,27.60
2019-02-24T18:59:55.950Z,26.93
2019-02-24T19:02:24.909Z,27.93
2019-02-24T19:04:54.059Z,27.13
2019-02-24T19:07:22.923Z,28.50
2019-02-24T19:09:51.868Z,27.63
2019-02-24T19:12:20.994Z,26.63
2019-02-24T19:14:49.972Z,27.80
2019-02-24T19:17:19.070Z,26.80
2019-02-24T19:19:47.825Z,27.60
2019-02-24T19:22:16.665Z,46.40
2019-02-24T19:24:45.660Z,31.70
2019-02-24T19:27:14.587Z,30.60
2019-02-24T19:29:43.670Z,29.50
2019-02-24T19:32:12.719Z,27.02
2019-02-24T19:34:41.840Z,26.60
2019-02-24T19:37:10.747Z,28.80
2019-02-24T19:39:40.058Z,27.07
2019-02-24T19:42:08.985Z,26.60
2019-02-24T19:44:37.857Z,26.77
2019-02-24T19:47:06.860Z,27.42
2019-02-24T19:49:35.792Z,27.83
2019-02-24T19:52:04.750Z,28.80
2019-02-24T19:54:33.524Z,28.43
2019-02-24T19:57:02.320Z,28.15
2019-02-24T19:59:31.211Z,27.30
2019-02-24T20:02:00.124Z,27.32
2019-02-24T20:04:29.057Z,28.00
2019-02-24T20:06:57.995Z,26.20
2019-02-24T20:09:26.871Z,27.75
2019-02-24T20:11:55.683Z,29.00
2019-02-24T20:14:24.852Z,27.52
2019-02-24T20:16:53.794Z,27.85
2019-02-24T20:19:22.709Z,26.70
2019-02-24T20:21:51.656Z,27.60
2019-02-24T20:24:20.529Z,28.90
2019-02-24T20:26:49.604Z,27.65
2019-02-24T20:29:18.490Z,27.67
2019-02-24T20:31:47.439Z,26.42
2019-02-24T20:34:24.964Z,27.22
2019-02-24T20:36:47.043Z,27.25
2019-02-24T20:39:15.898Z,27.75
2019-02-24T20:41:44.748Z,28.07
2019-02-24T20:44:13.975Z,27.70
2019-02-24T20:46:42.904Z,27.98
2019-02-24T20:49:11.795Z,27.55
2019-02-24T20:51:40.572Z,28.20
2019-02-24T20:54:09.562Z,27.70
2019-02-24T20:56:38.906Z,27.10
2019-02-24T20:59:07.720Z,26.97
2019-02-24T21:01:36.527Z,26.90
2019-02-24T21:04:05.322Z,28.17
2019-02-24T21:06:34.127Z,27.95
2019-02-24T21:09:03.032Z,25.65
2019-02-24T21:11:31.948Z,27.15
2019-02-24T21:14:01.327Z,27.52
2019-02-24T21:16:30.138Z,25.97
2019-02-24T21:18:58.971Z,27.25
2019-02-24T21:21:27.910Z,28.35
2019-02-24T21:23:56.852Z,27.77
2019-02-24T21:26:26.508Z,26.95
2019-02-24T21:28:55.385Z,26.17
2019-02-24T21:31:24.157Z,27.20
2019-02-24T21:33:53.006Z,26.52
2019-02-24T21:36:21.829Z,27.87
2019-02-24T21:38:50.664Z,26.70
2019-02-24T21:41:19.432Z,26.87
2019-02-24T21:43:48.194Z,26.52
2019-02-24T21:46:17.013Z,29.10
2019-02-24T21:48:45.892Z,26.42
2019-02-24T21:51:14.955Z,26.90
2019-02-24T21:53:43.788Z,26.05
2019-02-24T21:56:13.152Z,27.30
2019-02-24T21:58:42.040Z,26.55
2019-02-24T22:01:10.831Z,26.82
2019-02-24T22:03:39.616Z,25.43
2019-02-24T22:06:08.449Z,26.05
2019-02-24T22:08:37.197Z,22.77
2019-02-24T22:11:06.024Z,26.20
2019-02-24T22:13:35.255Z,24.60
2019-02-24T22:16:04.116Z,25.08
2019-02-24T22:18:32.906Z,26.55
2019-02-24T22:21:01.666Z,24.15
2019-02-24T22:23:30.443Z,22.75
2019-02-24T22:25:59.475Z,24.07
2019-02-24T22:28:28.276Z,24.82
2019-02-24T22:30:57.378Z,24.32
2019-02-24T22:33:26.395Z,23.00
2019-02-24T22:35:55.621Z,23.57
2019-02-24T22:38:24.936Z,24.30
2019-02-24T22:40:54.613Z,25.10
2019-02-24T22:43:24.703Z,22.30
2019-02-24T22:45:53.436Z,22.95
2019-02-24T22:48:22.531Z,23.35
2019-02-24T22:50:51.385Z,22.50
2019-02-24T22:53:20.535Z,22.45
2019-02-24T22:55:49.357Z,25.05
2019-02-24T22:58:18.532Z,23.85
2019-02-24T23:01:02.437Z,24.40
2019-02-24T23:03:34.236Z,23.50
2019-02-24T23:06:03.271Z,23.83
2019-02-24T23:08:32.131Z,23.25
2019-02-24T23:11:01.003Z,22.00
2019-02-24T23:13:29.896Z,23.20
2019-02-24T23:15:58.746Z,23.27
2019-02-24T23:18:27.595Z,23.07
2019-02-24T23:20:57.394Z,22.60
2019-02-24T23:23:26.450Z,22.32
2019-02-24T23:25:55.293Z,23.12
2019-02-24T23:28:24.052Z,22.62
2019-02-24T23:30:52.831Z,22.02
2019-02-24T23:33:22.360Z,23.05
2019-02-24T23:35:51.155Z,22.13
2019-02-24T23:38:19.966Z,21.40
2019-02-24T23:40:49.048Z,24.27
2019-02-24T23:43:17.930Z,21.07
2019-02-24T23:45:46.760Z,21.68
2019-02-24T23:48:15.506Z,20.70
2019-02-24T23:50:44.731Z,21.50
2019-02-24T23:53:13.694Z,22.00
2019-02-24T23:55:42.958Z,20.70
2019-02-24T23:58:12.326Z,20.80
